createdAt,value
2023-03-20T00:00:34.614Z,64.90
2023-03-20T00:01:34.597Z,64.90
2023-03-20T00:02:34.592Z,64.90
2023-03-20T00:03:34.616Z,64.90
2023-03-20T00:04:34.702Z,64.90
2023-03-20T00:05:34.908Z,65.00
2023-03-20T00:06:34.552Z,64.90
2023-03-20T00:07:34.541Z,64.90
2023-03-20T00:08:34.526Z,64.90
2023-03-20T00:09:34.531Z,64.90
2023-03-20T00:10:34.505Z,64.90
2023-03-20T00:11:34.507Z,64.90
2023-03-20T00:12:34.480Z,64.90
2023-03-20T00:13:34.471Z,64.90
2023-03-20T00:14:34.485Z,64.90
2023-03-20T00:15:34.745Z,64.90
2023-03-20T00:16:34.487Z,64.90
2023-03-20T00:17:34.451Z,64.90
2023-03-20T00:18:34.435Z,64.90
2023-03-20T00:19:34.406Z,64.90
2023-03-20T00:20:34.708Z,64.90
2023-03-20T00:21:34.483Z,64.90
2023-03-20T00:22:34.379Z,64.90
2023-03-20T00:23:34.385Z,64.90
2023-03-20T00:24:34.372Z,64.90
2023-03-20T00:25:34.731Z,64.90
2023-03-20T00:26:34.349Z,64.90
2023-03-20T00:27:34.321Z,64.90
2023-03-20T00:28:34.309Z,64.90
2023-03-20T00:29:34.377Z,64.90
2023-03-20T00:30:34.288Z,64.90
2023-03-20T00:31:34.332Z,64.90
2023-03-20T00:32:34.333Z,64.90
2023-03-20T00:33:34.261Z,64.90
2023-03-20T00:34:34.245Z,64.90
2023-03-20T00:35:34.724Z,64.90
2023-03-20T00:36:34.279Z,64.90
2023-03-20T00:37:34.214Z,64.90
2023-03-20T00:38:34.202Z,64.90
2023-03-20T00:39:34.195Z,64.90
2023-03-20T00:40:34.201Z,64.90
2023-03-20T00:41:34.200Z,64.90
2023-03-20T00:42:34.179Z,64.90
2023-03-20T00:43:34.173Z,64.90
2023-03-20T00:44:34.159Z,64.90
2023-03-20T00:45:34.367Z,64.90
2023-03-20T00:46:34.159Z,64.90
2023-03-20T00:47:34.134Z,64.90
2023-03-20T00:48:34.098Z,64.90
2023-03-20T00:49:34.102Z,64.90
2023-03-20T00:50:34.074Z,64.90
2023-03-20T00:51:34.068Z,64.90
2023-03-20T00:52:34.078Z,64.90
2023-03-20T00:53:34.048Z,64.90
2023-03-20T00:54:34.057Z,64.90
2023-03-20T00:55:34.344Z,64.90
2023-03-20T00:56:34.024Z,64.90
2023-03-20T00:57:34.012Z,64.90
2023-03-20T00:58:33.998Z,64.90
2023-03-20T00:59:33.982Z,64.90
2023-03-20T01:00:34.028Z,64.90
2023-03-20T01:01:33.954Z,64.90
2023-03-20T01:02:33.962Z,64.90
2023-03-20T01:03:33.934Z,64.90
2023-03-20T01:04:33.928Z,64.90
2023-03-20T01:05:34.271Z,64.90
2023-03-20T01:06:33.905Z,64.90
2023-03-20T01:07:33.901Z,64.90
2023-03-20T01:08:33.906Z,64.90
2023-03-20T01:09:33.867Z,64.90
2023-03-20T01:10:33.877Z,64.90
2023-03-20T01:11:33.847Z,64.90
2023-03-20T01:12:33.854Z,64.90
2023-03-20T01:13:33.822Z,64.90
2023-03-20T01:14:33.815Z,64.90
2023-03-20T01:15:34.262Z,64.90
2023-03-20T01:16:33.839Z,64.90
2023-03-20T01:17:33.823Z,64.90
2023-03-20T01:18:33.773Z,64.90
2023-03-20T01:19:33.759Z,64.90
2023-03-20T01:20:33.751Z,64.90
2023-03-20T01:21:33.737Z,64.90
2023-03-20T01:22:33.736Z,64.90
2023-03-20T01:23:33.732Z,64.90
2023-03-20T01:24:33.745Z,64.90
2023-03-20T01:25:33.907Z,64.90
2023-03-20T01:26:33.682Z,64.90
2023-03-20T01:27:33.673Z,64.90
2023-03-20T01:28:33.660Z,64.90
2023-03-20T01:29:33.669Z,64.90
2023-03-20T01:30:33.639Z,64.90
2023-03-20T01:31:33.658Z,64.90
2023-03-20T01:32:33.677Z,64.90
2023-03-20T01:33:33.626Z,64.90
2023-03-20T01:34:33.595Z,64.90
2023-03-20T01:35:33.958Z,64.90
2023-03-20T01:36:33.574Z,64.90
2023-03-20T01:37:33.565Z,64.90
2023-03-20T01:38:33.572Z,64.90
2023-03-20T01:39:33.558Z,64.90
2023-03-20T01:40:33.557Z,64.90
2023-03-20T01:41:33.547Z,64.90
2023-03-20T01:42:33.545Z,64.90
2023-03-20T01:43:33.503Z,64.90
2023-03-20T01:44:33.513Z,64.90
2023-03-20T01:45:33.620Z,64.90
2023-03-20T01:46:33.493Z,64.90
2023-03-20T01:47:33.477Z,64.90
2023-03-20T01:48:33.451Z,64.90
2023-03-20T01:49:33.462Z,64.90
2023-03-20T01:50:33.430Z,64.90
2023-03-20T01:51:33.425Z,64.90
2023-03-20T01:52:33.406Z,64.90
2023-03-20T01:53:33.397Z,64.90
2023-03-20T01:54:33.394Z,64.90
2023-03-20T01:55:33.664Z,64.90
2023-03-20T01:56:33.399Z,64.90
2023-03-20T01:57:33.356Z,64.90
2023-03-20T01:58:33.351Z,64.90
2023-03-20T01:59:33.335Z,64.90
2023-03-20T02:00:33.341Z,64.90
2023-03-20T02:01:33.474Z,64.90
2023-03-20T02:02:33.311Z,64.90
2023-03-20T02:03:33.290Z,64.90
2023-03-20T02:04:33.312Z,64.90
2023-03-20T02:05:33.436Z,64.90
2023-03-20T02:06:33.264Z,64.90
2023-03-20T02:07:33.247Z,64.90
2023-03-20T02:08:33.245Z,64.90
2023-03-20T02:09:33.260Z,64.90
2023-03-20T02:10:33.215Z,64.90
2023-03-20T02:11:33.204Z,64.90
2023-03-20T02:12:33.240Z,64.90
2023-03-20T02:13:33.202Z,64.90
2023-03-20T02:14:33.180Z,64.90
2023-03-20T02:15:33.300Z,64.90
2023-03-20T02:16:33.197Z,64.90
2023-03-20T02:17:33.148Z,64.90
2023-03-20T02:18:33.153Z,64.90
2023-03-20T02:19:33.117Z,64.90
2023-03-20T02:20:33.119Z,64.90
2023-03-20T02:21:33.140Z,64.90
2023-03-20T02:22:33.087Z,64.90
2023-03-20T02:23:33.094Z,64.90
2023-03-20T02:24:33.082Z,64.90
2023-03-20T02:25:33.161Z,64.90
2023-03-20T02:26:33.043Z,64.90
2023-03-20T02:27:33.043Z,64.90
2023-03-20T02:28:33.063Z,64.90
2023-03-20T02:29:33.030Z,64.90
2023-03-20T02:30:33.041Z,64.90
2023-03-20T02:31:32.989Z,64.90
2023-03-20T02:32:33.028Z,64.90
2023-03-20T02:33:32.970Z,64.90
2023-03-20T02:34:32.961Z,64.90
2023-03-20T02:35:32.964Z,64.90
2023-03-20T02:36:32.946Z,64.90
2023-03-20T02:37:32.973Z,64.90
2023-03-20T02:38:32.914Z,64.90
2023-03-20T02:39:32.950Z,64.90
2023-03-20T02:40:32.893Z,64.79
2023-03-20T02:41:32.962Z,64.79
2023-03-20T02:42:33.945Z,64.90
2023-03-20T02:43:32.893Z,64.79
2023-03-20T02:44:32.883Z,64.79
2023-03-20T02:45:33.004Z,64.90
2023-03-20T02:46:32.880Z,64.90
2023-03-20T02:47:32.819Z,64.90
2023-03-20T02:48:32.831Z,64.90
2023-03-20T02:49:32.805Z,64.90
2023-03-20T02:50:32.786Z,64.90
2023-03-20T02:51:32.779Z,64.90
2023-03-20T02:52:32.782Z,64.79
2023-03-20T02:53:32.780Z,64.79
2023-03-20T02:54:32.742Z,64.79
2023-03-20T02:55:33.021Z,64.90
2023-03-20T02:56:32.730Z,64.90
2023-03-20T02:57:32.721Z,64.90
2023-03-20T02:58:32.701Z,64.90
2023-03-20T02:59:32.724Z,64.79
2023-03-20T03:00:32.711Z,64.79
2023-03-20T03:01:32.761Z,64.79
2023-03-20T03:02:32.716Z,64.79
2023-03-20T03:03:32.649Z,64.79
2023-03-20T03:04:32.662Z,64.79
2023-03-20T03:05:32.693Z,64.79
2023-03-20T03:06:32.626Z,64.79
2023-03-20T03:07:32.611Z,64.79
2023-03-20T03:08:32.603Z,64.79
2023-03-20T03:09:32.607Z,64.79
2023-03-20T03:10:32.779Z,64.79
2023-03-20T03:11:32.573Z,64.79
2023-03-20T03:12:32.564Z,64.79
2023-03-20T03:13:32.591Z,64.79
2023-03-20T03:14:32.555Z,64.79
2023-03-20T03:15:32.549Z,64.79
2023-03-20T03:16:32.542Z,64.79
2023-03-20T03:17:32.497Z,64.79
2023-03-20T03:18:32.493Z,64.79
2023-03-20T03:19:32.479Z,64.79
2023-03-20T03:20:32.516Z,64.79
2023-03-20T03:21:32.462Z,64.79
2023-03-20T03:22:32.445Z,64.79
2023-03-20T03:23:32.438Z,64.79
2023-03-20T03:24:40.902Z,64.79
2023-03-20T03:25:33.658Z,64.79
2023-03-20T03:26:32.405Z,64.79
2023-03-20T03:27:32.422Z,64.79
2023-03-20T03:28:32.382Z,64.79
2023-03-20T03:29:32.375Z,64.79
2023-03-20T03:30:32.374Z,64.79
2023-03-20T03:31:32.414Z,64.79
2023-03-20T03:32:32.362Z,64.83
2023-03-20T03:33:32.396Z,64.79
2023-03-20T03:34:32.322Z,64.79
2023-03-20T03:35:32.327Z,64.79
2023-03-20T03:36:32.315Z,64.83
2023-03-20T03:37:32.285Z,64.79
2023-03-20T03:38:32.283Z,64.79
2023-03-20T03:39:32.296Z,64.79
2023-03-20T03:40:32.252Z,64.83
2023-03-20T03:41:32.247Z,64.83
2023-03-20T03:42:32.230Z,64.83
2023-03-20T03:43:32.226Z,64.79
2023-03-20T03:44:32.249Z,64.79
2023-03-20T03:45:32.200Z,64.79
2023-03-20T03:46:32.266Z,64.79
2023-03-20T03:47:32.185Z,64.79
2023-03-20T03:48:32.224Z,64.83
2023-03-20T03:49:32.163Z,64.83
2023-03-20T03:50:32.158Z,64.83
2023-03-20T03:51:32.144Z,64.79
2023-03-20T03:52:32.127Z,64.83
2023-03-20T03:53:32.132Z,64.83
2023-03-20T03:54:32.153Z,64.79
2023-03-20T03:55:32.137Z,64.73
2023-03-20T03:56:32.090Z,64.70
2023-03-20T03:57:32.087Z,64.79
2023-03-20T03:58:32.061Z,64.83
2023-03-20T03:59:32.053Z,64.83
2023-03-20T04:00:32.049Z,64.83
2023-03-20T04:01:32.081Z,64.79
2023-03-20T04:02:32.041Z,64.79
2023-03-20T04:03:32.009Z,64.83
2023-03-20T04:04:32.093Z,64.83
2023-03-20T04:05:32.019Z,64.83
2023-03-20T04:06:31.990Z,64.83
2023-03-20T04:07:31.968Z,64.83
2023-03-20T04:08:31.961Z,64.83
2023-03-20T04:09:31.966Z,64.79
2023-03-20T04:10:31.943Z,64.79
2023-03-20T04:11:31.924Z,64.79
2023-03-20T04:12:31.938Z,64.79
2023-03-20T04:13:31.905Z,64.83
2023-03-20T04:14:31.899Z,64.83
2023-03-20T04:15:31.882Z,64.70
2023-03-20T04:16:31.898Z,64.83
2023-03-20T04:17:31.887Z,64.79
2023-03-20T04:18:31.875Z,64.83
2023-03-20T04:19:31.851Z,64.79
2023-03-20T04:20:31.859Z,64.83
2023-03-20T04:21:31.822Z,64.70
2023-03-20T04:22:31.813Z,64.73
2023-03-20T04:23:31.827Z,64.73
2023-03-20T04:24:31.797Z,64.70
2023-03-20T04:25:31.778Z,64.73
2023-03-20T04:26:31.765Z,64.73
2023-03-20T04:27:31.801Z,64.73
2023-03-20T04:28:31.744Z,64.83
2023-03-20T04:29:31.741Z,64.73
2023-03-20T04:30:31.725Z,64.79
2023-03-20T04:31:31.789Z,64.73
2023-03-20T04:32:31.725Z,64.73
2023-03-20T04:33:31.697Z,64.70
2023-03-20T04:34:31.682Z,64.73
2023-03-20T04:35:31.673Z,64.70
2023-03-20T04:36:31.693Z,64.73
2023-03-20T04:37:31.657Z,64.83
2023-03-20T04:38:31.678Z,64.73
2023-03-20T04:39:31.655Z,64.73
2023-03-20T04:40:31.636Z,64.73
2023-03-20T04:41:31.620Z,64.73
2023-03-20T04:42:31.604Z,64.73
2023-03-20T04:43:31.589Z,64.73
2023-03-20T04:44:31.593Z,64.73
2023-03-20T04:45:31.666Z,64.83
2023-03-20T04:46:31.552Z,64.83
2023-03-20T04:47:31.544Z,64.73
2023-03-20T04:48:31.536Z,64.83
2023-03-20T04:49:31.540Z,64.73
2023-03-20T04:50:31.511Z,64.73
2023-03-20T04:51:31.500Z,64.73
2023-03-20T04:52:31.647Z,64.73
2023-03-20T04:53:31.497Z,64.73
2023-03-20T04:54:31.485Z,64.73
2023-03-20T04:55:31.472Z,64.73
2023-03-20T04:56:31.472Z,64.73
2023-03-20T04:57:31.464Z,64.73
2023-03-20T04:58:31.452Z,64.73
2023-03-20T04:59:31.412Z,64.73
2023-03-20T05:00:31.406Z,64.73
2023-03-20T05:01:31.496Z,64.73
2023-03-20T05:02:31.383Z,64.73
2023-03-20T05:03:31.392Z,64.73
2023-03-20T05:04:31.497Z,64.73
2023-03-20T05:05:31.362Z,64.73
2023-03-20T05:06:31.361Z,64.73
2023-03-20T05:07:31.327Z,64.73
2023-03-20T05:08:31.366Z,64.73
2023-03-20T05:09:31.306Z,64.73
2023-03-20T05:10:31.332Z,64.83
2023-03-20T05:11:31.282Z,64.73
2023-03-20T05:12:31.273Z,64.73
2023-03-20T05:13:31.260Z,64.73
2023-03-20T05:14:31.267Z,64.73
2023-03-20T05:15:31.238Z,64.73
2023-03-20T05:16:31.275Z,64.73
2023-03-20T05:17:31.248Z,64.73
2023-03-20T05:18:31.209Z,64.73
2023-03-20T05:19:31.196Z,64.73
2023-03-20T05:20:31.185Z,64.73
2023-03-20T05:21:31.170Z,64.73
2023-03-20T05:22:31.207Z,64.73
2023-03-20T05:23:31.156Z,64.73
2023-03-20T05:24:31.165Z,64.73
2023-03-20T05:25:31.130Z,64.73
2023-03-20T05:26:31.131Z,64.73
2023-03-20T05:27:31.127Z,64.73
2023-03-20T05:28:31.122Z,64.73
2023-03-20T05:29:31.087Z,64.73
2023-03-20T05:30:31.079Z,64.73
2023-03-20T05:31:31.063Z,64.73
2023-03-20T05:32:31.061Z,64.73
2023-03-20T05:33:31.071Z,64.73
2023-03-20T05:34:31.038Z,64.73
2023-03-20T05:35:31.019Z,64.73
2023-03-20T05:36:31.022Z,64.73
2023-03-20T05:37:31.004Z,64.73
2023-03-20T05:38:30.990Z,64.73
2023-03-20T05:39:30.999Z,64.73
2023-03-20T05:40:30.995Z,64.73
2023-03-20T05:41:30.962Z,64.73
2023-03-20T05:42:30.960Z,64.73
2023-03-20T05:43:30.935Z,64.73
2023-03-20T05:44:30.925Z,64.73
2023-03-20T05:45:30.924Z,64.73
2023-03-20T05:46:30.994Z,64.73
2023-03-20T05:47:30.915Z,64.73
2023-03-20T05:48:30.881Z,64.73
2023-03-20T05:49:30.876Z,64.73
2023-03-20T05:50:30.855Z,64.73
2023-03-20T05:51:30.846Z,64.73
2023-03-20T05:52:30.834Z,64.73
2023-03-20T05:53:30.843Z,64.73
2023-03-20T05:54:30.814Z,64.73
2023-03-20T05:55:30.828Z,64.73
2023-03-20T05:56:30.848Z,64.73
2023-03-20T05:57:30.782Z,64.73
2023-03-20T05:58:30.797Z,64.73
2023-03-20T05:59:30.772Z,64.73
2023-03-20T06:00:30.754Z,64.73
2023-03-20T06:01:30.758Z,64.73
2023-03-20T06:02:30.771Z,64.73
2023-03-20T06:03:30.846Z,64.73
2023-03-20T06:04:30.715Z,64.73
2023-03-20T06:05:30.698Z,64.73
2023-03-20T06:06:30.711Z,64.73
2023-03-20T06:07:30.681Z,64.73
2023-03-20T06:08:30.673Z,64.73
2023-03-20T06:09:30.656Z,64.73
2023-03-20T06:10:30.650Z,64.73
2023-03-20T06:11:30.641Z,64.73
2023-03-20T06:12:30.673Z,64.73
2023-03-20T06:13:30.612Z,64.73
2023-03-20T06:14:30.604Z,64.73
2023-03-20T06:15:30.591Z,64.73
2023-03-20T06:16:30.583Z,64.73
2023-03-20T06:17:30.611Z,64.73
2023-03-20T06:18:30.565Z,64.73
2023-03-20T06:19:30.580Z,64.73
2023-03-20T06:20:30.557Z,64.73
2023-03-20T06:21:30.542Z,64.73
2023-03-20T06:22:30.520Z,64.73
2023-03-20T06:23:30.525Z,64.73
2023-03-20T06:24:30.513Z,64.73
2023-03-20T06:25:30.520Z,64.73
2023-03-20T06:26:30.483Z,64.73
2023-03-20T06:27:30.462Z,64.73
2023-03-20T06:28:30.477Z,64.73
2023-03-20T06:29:30.443Z,64.73
2023-03-20T06:30:30.436Z,64.73
2023-03-20T06:31:30.535Z,64.73
2023-03-20T06:32:30.412Z,64.62
2023-03-20T06:33:30.401Z,64.73
2023-03-20T06:34:30.419Z,64.62
2023-03-20T06:35:30.536Z,64.62
2023-03-20T06:36:30.364Z,64.73
2023-03-20T06:37:30.352Z,64.73
2023-03-20T06:38:30.370Z,64.73
2023-03-20T06:39:30.331Z,64.62
2023-03-20T06:40:30.316Z,64.62
2023-03-20T06:41:34.525Z,64.73
2023-03-20T06:42:30.310Z,64.73
2023-03-20T06:43:30.289Z,64.73
2023-03-20T06:44:30.313Z,64.73
2023-03-20T06:45:30.262Z,64.73
2023-03-20T06:46:30.330Z,64.73
2023-03-20T06:47:30.243Z,64.73
2023-03-20T06:48:30.257Z,64.73
2023-03-20T06:49:30.220Z,64.73
2023-03-20T06:50:30.213Z,64.73
2023-03-20T06:51:30.198Z,64.62
2023-03-20T06:52:30.189Z,64.73
2023-03-20T06:53:30.208Z,64.62
2023-03-20T06:54:30.167Z,64.73
2023-03-20T06:55:30.153Z,64.73
2023-03-20T06:56:30.145Z,64.62
2023-03-20T06:57:30.151Z,64.62
2023-03-20T06:58:30.124Z,64.62
2023-03-20T06:59:30.113Z,64.73
2023-03-20T07:00:30.167Z,64.73
2023-03-20T07:01:30.159Z,64.62
2023-03-20T07:02:30.099Z,64.62
2023-03-20T07:03:30.075Z,64.62
2023-03-20T07:04:30.121Z,64.62
2023-03-20T07:05:30.047Z,64.62
2023-03-20T07:06:30.055Z,64.73
2023-03-20T07:07:30.027Z,64.62
2023-03-20T07:08:30.034Z,64.62
2023-03-20T07:09:30.009Z,64.62
2023-03-20T07:10:30.177Z,64.62
2023-03-20T07:11:29.987Z,64.62
2023-03-20T07:12:29.978Z,64.62
2023-03-20T07:13:29.993Z,64.62
2023-03-20T07:14:29.955Z,64.62
2023-03-20T07:15:29.955Z,64.62
2023-03-20T07:16:30.056Z,64.62
2023-03-20T07:17:29.925Z,64.62
2023-03-20T07:18:29.916Z,64.62
2023-03-20T07:19:29.906Z,64.62
2023-03-20T07:20:29.975Z,64.62
2023-03-20T07:21:29.885Z,64.62
2023-03-20T07:22:29.893Z,64.62
2023-03-20T07:23:29.864Z,64.62
2023-03-20T07:24:29.878Z,64.62
2023-03-20T07:25:41.817Z,64.62
2023-03-20T07:26:30.826Z,64.62
2023-03-20T07:27:29.833Z,64.62
2023-03-20T07:28:29.806Z,64.62
2023-03-20T07:29:29.797Z,64.62
2023-03-20T07:30:29.788Z,64.62
2023-03-20T07:31:29.897Z,64.62
2023-03-20T07:32:29.834Z,64.62
2023-03-20T07:33:29.751Z,64.62
2023-03-20T07:34:29.751Z,64.62
2023-03-20T07:35:29.789Z,64.62
2023-03-20T07:36:29.729Z,64.62
2023-03-20T07:37:29.705Z,64.62
2023-03-20T07:38:29.722Z,64.62
2023-03-20T07:39:29.685Z,64.62
2023-03-20T07:40:29.678Z,64.62
2023-03-20T07:41:29.681Z,64.62
2023-03-20T07:42:29.650Z,64.62
2023-03-20T07:43:29.635Z,64.62
2023-03-20T07:44:29.628Z,64.62
2023-03-20T07:45:29.674Z,64.62
2023-03-20T07:46:29.603Z,64.62
2023-03-20T07:47:29.684Z,64.62
2023-03-20T07:48:29.678Z,64.62
2023-03-20T07:49:29.569Z,64.62
2023-03-20T07:50:29.560Z,64.62
2023-03-20T07:51:29.551Z,64.52
2023-03-20T07:52:29.572Z,64.42
2023-03-20T07:53:29.525Z,64.42
2023-03-20T07:54:29.516Z,64.32
2023-03-20T07:55:29.506Z,64.32
2023-03-20T07:56:29.495Z,64.42
2023-03-20T07:57:29.491Z,64.42
2023-03-20T07:58:29.498Z,64.42
2023-03-20T07:59:29.461Z,64.42
2023-03-20T08:00:29.530Z,64.42
2023-03-20T08:01:29.448Z,64.52
2023-03-20T08:02:29.433Z,64.52
2023-03-20T08:03:29.583Z,64.52
2023-03-20T08:04:29.433Z,64.52
2023-03-20T08:05:29.586Z,64.42
2023-03-20T08:06:29.386Z,64.42
2023-03-20T08:07:29.398Z,64.42
2023-03-20T08:08:29.372Z,64.52
2023-03-20T08:09:29.356Z,64.52
2023-03-20T08:10:29.341Z,64.52
2023-03-20T08:11:29.337Z,64.52
2023-03-20T08:12:29.348Z,64.52
2023-03-20T08:13:29.313Z,64.52
2023-03-20T08:14:29.306Z,64.42
2023-03-20T08:15:29.296Z,64.42
2023-03-20T08:16:29.379Z,64.42
2023-03-20T08:17:29.392Z,64.42
2023-03-20T08:18:29.280Z,64.42
2023-03-20T08:19:29.254Z,64.42
2023-03-20T08:20:29.259Z,64.42
2023-03-20T08:21:29.251Z,64.52
2023-03-20T08:22:29.216Z,64.52
2023-03-20T08:23:29.238Z,64.42
2023-03-20T08:24:29.194Z,64.42
2023-03-20T08:25:29.183Z,64.39
2023-03-20T08:26:29.202Z,64.39
2023-03-20T08:27:29.163Z,64.39
2023-03-20T08:28:46.270Z,64.42
2023-03-20T08:29:30.149Z,64.49
2023-03-20T08:30:29.441Z,64.49
2023-03-20T08:31:29.132Z,64.49
2023-03-20T08:32:29.144Z,64.59
2023-03-20T08:33:29.104Z,64.59
2023-03-20T08:34:29.092Z,64.59
2023-03-20T08:35:33.267Z,64.59
2023-03-20T08:36:29.094Z,64.49
2023-03-20T08:37:29.082Z,64.59
2023-03-20T08:38:29.046Z,64.70
2023-03-20T08:39:29.049Z,64.70
2023-03-20T08:40:29.029Z,64.79
2023-03-20T08:41:29.019Z,64.79
2023-03-20T08:42:29.002Z,64.79
2023-03-20T08:43:29.010Z,64.79
2023-03-20T08:44:29.005Z,64.79
2023-03-20T08:45:28.991Z,64.79
2023-03-20T08:46:29.008Z,64.70
2023-03-20T08:47:28.965Z,64.70
2023-03-20T08:48:28.955Z,64.70
2023-03-20T08:49:28.943Z,64.79
2023-03-20T08:50:28.917Z,64.70
2023-03-20T08:51:28.900Z,64.79
2023-03-20T08:52:28.920Z,64.79
2023-03-20T08:53:28.897Z,64.70
2023-03-20T08:54:28.873Z,64.79
2023-03-20T08:55:28.858Z,64.79
2023-03-20T08:56:28.886Z,64.90
2023-03-20T08:57:28.840Z,64.90
2023-03-20T08:58:28.828Z,64.79
2023-03-20T08:59:28.828Z,64.79
2023-03-20T09:00:28.820Z,64.79
2023-03-20T09:01:46.004Z,64.79
2023-03-20T09:02:29.957Z,64.79
2023-03-20T09:03:28.790Z,64.70
2023-03-20T09:04:28.773Z,64.70
2023-03-20T09:05:28.753Z,64.39
2023-03-20T09:06:28.758Z,64.49
2023-03-20T09:07:28.731Z,64.39
2023-03-20T09:08:28.739Z,64.39
2023-03-20T09:09:28.705Z,64.39
2023-03-20T09:10:28.691Z,64.70
2023-03-20T09:11:28.686Z,64.59
2023-03-20T09:12:28.691Z,64.59
2023-03-20T09:13:28.666Z,64.79
2023-03-20T09:14:28.665Z,64.79
2023-03-20T09:15:28.640Z,64.79
2023-03-20T09:16:28.696Z,64.79
2023-03-20T09:17:28.639Z,64.79
2023-03-20T09:18:28.605Z,64.70
2023-03-20T09:19:30.033Z,64.70
2023-03-20T09:20:28.585Z,64.79
2023-03-20T09:21:28.589Z,64.79
2023-03-20T09:22:28.583Z,64.79
2023-03-20T09:23:28.555Z,64.76
2023-03-20T09:24:28.568Z,64.76
2023-03-20T09:25:28.534Z,64.76
2023-03-20T09:26:28.553Z,64.76
2023-03-20T09:27:28.537Z,64.87
2023-03-20T09:28:28.508Z,64.76
2023-03-20T09:29:28.488Z,64.76
2023-03-20T09:30:28.501Z,64.76
2023-03-20T09:31:28.541Z,64.76
2023-03-20T09:32:28.482Z,64.76
2023-03-20T09:33:28.466Z,64.76
2023-03-20T09:34:28.439Z,64.67
2023-03-20T09:35:28.450Z,64.67
2023-03-20T09:36:28.425Z,64.67
2023-03-20T09:37:28.420Z,64.67
2023-03-20T09:38:28.411Z,64.67
2023-03-20T09:39:28.380Z,64.67
2023-03-20T09:40:28.395Z,64.56
2023-03-20T09:41:28.556Z,64.46
2023-03-20T09:42:28.400Z,64.36
2023-03-20T09:43:28.340Z,64.26
2023-03-20T09:44:28.334Z,64.36
2023-03-20T09:45:28.329Z,64.26
2023-03-20T09:46:28.395Z,64.29
2023-03-20T09:47:28.303Z,64.26
2023-03-20T09:48:28.334Z,64.29
2023-03-20T09:49:28.276Z,64.39
2023-03-20T09:50:28.276Z,64.39
2023-03-20T09:51:28.277Z,64.39
2023-03-20T09:52:28.249Z,64.39
2023-03-20T09:53:28.230Z,64.39
2023-03-20T09:54:28.221Z,64.39
2023-03-20T09:55:28.250Z,64.39
2023-03-20T09:56:28.234Z,64.49
2023-03-20T09:57:28.209Z,64.59
2023-03-20T09:58:28.181Z,64.70
2023-03-20T09:59:28.200Z,64.79
2023-03-20T10:00:28.160Z,64.79
2023-03-20T10:01:28.187Z,64.79
2023-03-20T10:02:28.132Z,64.79
2023-03-20T10:03:28.123Z,64.90
2023-03-20T10:04:28.136Z,64.90
2023-03-20T10:05:28.120Z,64.90
2023-03-20T10:06:28.093Z,64.87
2023-03-20T10:07:28.081Z,64.76
2023-03-20T10:08:28.067Z,64.87
2023-03-20T10:09:28.089Z,64.87
2023-03-20T10:10:28.067Z,64.87
2023-03-20T10:11:28.037Z,64.76
2023-03-20T10:12:28.055Z,64.76
2023-03-20T10:13:28.034Z,64.76
2023-03-20T10:14:28.015Z,64.76
2023-03-20T10:15:28.007Z,64.87
2023-03-20T10:16:28.085Z,64.87
2023-03-20T10:17:27.971Z,64.87
2023-03-20T10:18:27.976Z,64.87
2023-03-20T10:19:27.955Z,64.87
2023-03-20T10:20:27.939Z,64.87
2023-03-20T10:21:27.950Z,64.76
2023-03-20T10:22:27.916Z,64.76
2023-03-20T10:23:27.937Z,64.76
2023-03-20T10:24:27.894Z,64.76
2023-03-20T10:25:27.885Z,64.67
2023-03-20T10:26:27.875Z,64.67
2023-03-20T10:27:28.506Z,64.76
2023-03-20T10:28:27.896Z,64.76
2023-03-20T10:29:27.840Z,64.76
2023-03-20T10:30:27.835Z,64.76
2023-03-20T10:31:27.884Z,64.76
2023-03-20T10:32:27.817Z,64.76
2023-03-20T10:33:27.797Z,64.76
2023-03-20T10:34:27.790Z,64.76
2023-03-20T10:35:27.782Z,64.76
2023-03-20T10:36:27.786Z,64.76
2023-03-20T10:37:27.755Z,64.67
2023-03-20T10:38:27.747Z,64.67
2023-03-20T10:39:27.734Z,64.76
2023-03-20T10:40:27.733Z,64.76
2023-03-20T10:41:27.743Z,64.76
2023-03-20T10:42:27.709Z,64.76
2023-03-20T10:43:27.693Z,64.67
2023-03-20T10:44:27.709Z,64.67
2023-03-20T10:45:27.689Z,64.67
2023-03-20T10:46:27.759Z,64.67
2023-03-20T10:47:27.720Z,64.67
2023-03-20T10:48:27.657Z,64.67
2023-03-20T10:49:27.639Z,64.56
2023-03-20T10:50:27.616Z,64.56
2023-03-20T10:51:27.619Z,64.67
2023-03-20T10:52:27.614Z,64.67
2023-03-20T10:53:30.665Z,64.67
2023-03-20T10:54:27.615Z,64.67
2023-03-20T10:55:27.564Z,64.67
2023-03-20T10:56:27.560Z,64.67
2023-03-20T10:57:27.548Z,64.67
2023-03-20T10:58:28.125Z,64.67
2023-03-20T10:59:27.540Z,64.67
2023-03-20T11:00:27.530Z,64.67
2023-03-20T11:01:27.665Z,64.67
2023-03-20T11:02:27.510Z,64.67
2023-03-20T11:03:27.523Z,64.76
2023-03-20T11:04:27.552Z,64.76
2023-03-20T11:05:27.464Z,64.76
2023-03-20T11:06:27.446Z,64.76
2023-03-20T11:07:27.444Z,64.67
2023-03-20T11:08:27.426Z,64.67
2023-03-20T11:09:27.435Z,64.67
2023-03-20T11:10:27.421Z,64.67
2023-03-20T11:11:27.394Z,64.67
2023-03-20T11:12:27.403Z,64.67
2023-03-20T11:13:27.374Z,64.67
2023-03-20T11:14:27.362Z,64.67
2023-03-20T11:15:27.352Z,64.67
2023-03-20T11:16:27.462Z,64.56
2023-03-20T11:17:27.346Z,64.56
2023-03-20T11:18:27.350Z,64.56
2023-03-20T11:19:27.334Z,64.56
2023-03-20T11:20:27.298Z,64.56
2023-03-20T11:21:27.288Z,64.26
2023-03-20T11:22:27.278Z,64.46
2023-03-20T11:23:27.284Z,64.36
2023-03-20T11:24:27.258Z,64.16
2023-03-20T11:25:27.246Z,64.26
2023-03-20T11:26:27.257Z,64.26
2023-03-20T11:27:27.225Z,64.26
2023-03-20T11:28:27.215Z,64.26
2023-03-20T11:29:27.212Z,64.26
2023-03-20T11:30:27.210Z,64.26
2023-03-20T11:31:27.234Z,64.36
2023-03-20T11:32:27.213Z,64.46
2023-03-20T11:33:27.161Z,64.46
2023-03-20T11:34:27.149Z,64.46
2023-03-20T11:35:27.158Z,64.46
2023-03-20T11:36:28.162Z,64.56
2023-03-20T11:37:27.134Z,64.67
2023-03-20T11:38:27.104Z,64.67
2023-03-20T11:39:27.114Z,64.67
2023-03-20T11:40:27.083Z,64.56
2023-03-20T11:41:27.074Z,64.56
2023-03-20T11:42:27.076Z,64.67
2023-03-20T11:43:27.092Z,64.56
2023-03-20T11:44:27.044Z,64.56
2023-03-20T11:45:27.028Z,64.56
2023-03-20T11:46:27.025Z,64.56
2023-03-20T11:47:27.005Z,64.56
2023-03-20T11:48:27.039Z,64.59
2023-03-20T11:49:27.006Z,64.56
2023-03-20T11:50:26.968Z,64.56
2023-03-20T11:51:26.979Z,64.56
2023-03-20T11:52:26.949Z,64.59
2023-03-20T11:53:26.945Z,64.70
2023-03-20T11:54:26.930Z,64.70
2023-03-20T11:55:26.921Z,64.70
2023-03-20T11:56:26.934Z,64.70
2023-03-20T11:57:26.913Z,64.70
2023-03-20T11:58:26.889Z,64.70
2023-03-20T11:59:26.884Z,64.70
2023-03-20T12:00:26.868Z,64.39
2023-03-20T12:01:26.859Z,64.29
2023-03-20T12:02:26.887Z,64.39
2023-03-20T12:03:26.859Z,64.39
2023-03-20T12:04:26.867Z,64.39
2023-03-20T12:05:26.813Z,64.39
2023-03-20T12:06:26.820Z,64.49
2023-03-20T12:07:26.794Z,64.49
2023-03-20T12:08:26.781Z,64.59
2023-03-20T12:09:26.787Z,64.59
2023-03-20T12:10:26.764Z,64.59
2023-03-20T12:11:26.749Z,64.59
2023-03-20T12:12:26.761Z,64.70
2023-03-20T12:13:26.727Z,64.67
2023-03-20T12:14:26.716Z,64.67
2023-03-20T12:15:26.705Z,64.67
2023-03-20T12:16:26.815Z,64.67
2023-03-20T12:17:26.707Z,64.76
2023-03-20T12:18:26.680Z,64.76
2023-03-20T12:19:26.671Z,64.46
2023-03-20T12:20:26.684Z,64.46
2023-03-20T12:21:26.641Z,64.46
2023-03-20T12:22:26.656Z,64.46
2023-03-20T12:23:26.619Z,64.46
2023-03-20T12:24:26.616Z,64.36
2023-03-20T12:25:26.614Z,64.36
2023-03-20T12:26:26.614Z,64.36
2023-03-20T12:27:26.577Z,64.36
2023-03-20T12:28:26.585Z,64.36
2023-03-20T12:29:26.558Z,64.36
2023-03-20T12:30:26.564Z,64.49
2023-03-20T12:31:26.652Z,64.49
2023-03-20T12:32:26.530Z,64.49
2023-03-20T12:33:26.537Z,64.49
2023-03-20T12:34:26.507Z,64.49
2023-03-20T12:35:26.495Z,64.49
2023-03-20T12:36:26.505Z,64.49
2023-03-20T12:37:26.473Z,64.49
2023-03-20T12:38:26.486Z,64.49
2023-03-20T12:39:26.502Z,64.49
2023-03-20T12:40:27.960Z,64.39
2023-03-20T12:41:26.449Z,64.39
2023-03-20T12:42:26.443Z,64.49
2023-03-20T12:43:26.421Z,64.49
2023-03-20T12:44:26.395Z,64.49
2023-03-20T12:45:26.387Z,64.49
2023-03-20T12:46:26.463Z,64.39
2023-03-20T12:47:26.366Z,64.39
2023-03-20T12:48:26.372Z,64.39
2023-03-20T12:49:26.343Z,64.39
2023-03-20T12:50:26.331Z,64.39
2023-03-20T12:51:26.322Z,64.39
2023-03-20T12:52:26.331Z,64.39